sensor_id;sensor_type;location;lat;lon;timestamp;P1;durP1;ratioP1;P2;durP2;ratioP2
78205;SDS011;67480;48.920;12.880;2023-08-24T00:02:00;6.68;;;4.20;;
78205;SDS011;67480;48.920;12.880;2023-08-24T00:04:25;4.85;;;4.30;;
78205;SDS011;67480;48.920;12.880;2023-08-24T00:06:51;6.22;;;4.25;;
78205;SDS011;67480;48.920;12.880;2023-08-24T00:09:16;4.53;;;4.13;;
78205;SDS011;67480;48.920;12.880;2023-08-24T00:11:42;5.05;;;3.95;;
78205;SDS011;67480;48.920;12.880;2023-08-24T00:14:07;5.85;;;4.00;;
78205;SDS011;67480;48.920;12.880;2023-08-24T00:16:34;5.38;;;4.03;;
78205;SDS011;67480;48.920;12.880;2023-08-24T00:18:59;7.63;;;4.30;;
78205;SDS011;67480;48.920;12.880;2023-08-24T00:21:25;5.22;;;4.10;;
78205;SDS011;67480;48.920;12.880;2023-08-24T00:23:50;4.65;;;3.63;;
78205;SDS011;67480;48.920;12.880;2023-08-24T00:26:16;7.80;;;4.18;;
78205;SDS011;67480;48.920;12.880;2023-08-24T00:28:44;4.63;;;4.00;;
78205;SDS011;67480;48.920;12.880;2023-08-24T00:31:10;4.80;;;4.15;;
78205;SDS011;67480;48.920;12.880;2023-08-24T00:33:36;5.05;;;4.18;;
78205;SDS011;67480;48.920;12.880;2023-08-24T00:36:03;4.22;;;3.47;;
78205;SDS011;67480;48.920;12.880;2023-08-24T00:38:30;5.18;;;4.13;;
78205;SDS011;67480;48.920;12.880;2023-08-24T00:40:56;5.78;;;3.78;;
78205;SDS011;67480;48.920;12.880;2023-08-24T00:43:26;4.93;;;3.75;;
78205;SDS011;67480;48.920;12.880;2023-08-24T00:45:53;4.57;;;3.70;;
78205;SDS011;67480;48.920;12.880;2023-08-24T00:48:24;6.03;;;3.80;;
78205;SDS011;67480;48.920;12.880;2023-08-24T00:50:53;6.15;;;3.67;;
78205;SDS011;67480;48.920;12.880;2023-08-24T00:53:19;4.60;;;3.70;;
78205;SDS011;67480;48.920;12.880;2023-08-24T00:55:46;5.03;;;3.75;;
78205;SDS011;67480;48.920;12.880;2023-08-24T00:58:11;4.25;;;3.78;;
78205;SDS011;67480;48.920;12.880;2023-08-24T01:00:38;4.18;;;3.78;;
78205;SDS011;67480;48.920;12.880;2023-08-24T01:03:03;4.63;;;3.80;;
78205;SDS011;67480;48.920;12.880;2023-08-24T01:05:29;4.35;;;3.75;;
78205;SDS011;67480;48.920;12.880;2023-08-24T01:07:54;5.70;;;4.13;;
78205;SDS011;67480;48.920;12.880;2023-08-24T01:10:20;4.95;;;3.58;;
78205;SDS011;67480;48.920;12.880;2023-08-24T01:15:35;4.80;;;3.35;;
78205;SDS011;67480;48.920;12.880;2023-08-24T01:18:06;6.35;;;3.78;;
78205;SDS011;67480;48.920;12.880;2023-08-24T01:20:36;5.07;;;3.85;;
78205;SDS011;67480;48.920;12.880;2023-08-24T01:28:28;10.43;;;4.22;;
78205;SDS011;67480;48.920;12.880;2023-08-24T01:30:55;4.20;;;3.80;;
78205;SDS011;67480;48.920;12.880;2023-08-24T01:33:21;4.80;;;3.70;;
78205;SDS011;67480;48.920;12.880;2023-08-24T01:35:46;4.40;;;3.15;;
78205;SDS011;67480;48.920;12.880;2023-08-24T01:38:12;4.63;;;3.42;;
78205;SDS011;67480;48.920;12.880;2023-08-24T01:40:56;5.43;;;3.60;;
78205;SDS011;67480;48.920;12.880;2023-08-24T01:43:43;4.50;;;3.67;;
78205;SDS011;67480;48.920;12.880;2023-08-24T01:46:12;5.60;;;3.50;;
78205;SDS011;67480;48.920;12.880;2023-08-24T01:48:40;4.72;;;3.60;;
78205;SDS011;67480;48.920;12.880;2023-08-24T01:51:07;6.07;;;3.53;;
78205;SDS011;67480;48.920;12.880;2023-08-24T01:53:35;3.47;;;3.17;;
78205;SDS011;67480;48.920;12.880;2023-08-24T01:56:07;3.33;;;3.03;;
78205;SDS011;67480;48.920;12.880;2023-08-24T02:01:01;4.30;;;3.58;;
78205;SDS011;67480;48.920;12.880;2023-08-24T02:03:26;4.47;;;3.40;;
78205;SDS011;67480;48.920;12.880;2023-08-24T02:05:52;5.13;;;3.60;;
78205;SDS011;67480;48.920;12.880;2023-08-24T02:08:17;5.50;;;3.63;;
78205;SDS011;67480;48.920;12.880;2023-08-24T02:10:42;4.88;;;4.13;;
78205;SDS011;67480;48.920;12.880;2023-08-24T02:13:08;5.53;;;3.67;;
78205;SDS011;67480;48.920;12.880;2023-08-24T02:15:33;5.18;;;4.13;;
78205;SDS011;67480;48.920;12.880;2023-08-24T02:17:59;6.03;;;4.38;;
78205;SDS011;67480;48.920;12.880;2023-08-24T02:20:25;4.72;;;3.83;;
78205;SDS011;67480;48.920;12.880;2023-08-24T02:22:50;4.13;;;3.55;;
78205;SDS011;67480;48.920;12.880;2023-08-24T02:25:16;4.95;;;3.78;;
78205;SDS011;67480;48.920;12.880;2023-08-24T02:27:41;5.90;;;4.53;;
78205;SDS011;67480;48.920;12.880;2023-08-24T02:30:07;4.60;;;3.95;;
78205;SDS011;67480;48.920;12.880;2023-08-24T02:32:32;5.20;;;4.10;;
78205;SDS011;67480;48.920;12.880;2023-08-24T02:34:58;4.90;;;3.97;;
78205;SDS011;67480;48.920;12.880;2023-08-24T02:37:23;5.35;;;3.75;;
78205;SDS011;67480;48.920;12.880;2023-08-24T02:39:49;5.78;;;4.22;;
78205;SDS011;67480;48.920;12.880;2023-08-24T02:42:14;6.35;;;4.40;;
78205;SDS011;67480;48.920;12.880;2023-08-24T02:44:39;5.70;;;3.80;;
78205;SDS011;67480;48.920;12.880;2023-08-24T02:47:05;4.45;;;3.97;;
78205;SDS011;67480;48.920;12.880;2023-08-24T02:49:31;6.28;;;4.05;;
78205;SDS011;67480;48.920;12.880;2023-08-24T02:51:56;4.47;;;3.65;;
78205;SDS011;67480;48.920;12.880;2023-08-24T02:54:22;5.47;;;4.10;;
78205;SDS011;67480;48.920;12.880;2023-08-24T02:56:48;6.43;;;4.43;;
78205;SDS011;67480;48.920;12.880;2023-08-24T02:59:14;7.07;;;4.65;;
78205;SDS011;67480;48.920;12.880;2023-08-24T03:01:39;5.50;;;3.80;;
78205;SDS011;67480;48.920;12.880;2023-08-24T03:04:06;6.43;;;4.40;;
78205;SDS011;67480;48.920;12.880;2023-08-24T03:06:31;6.50;;;4.00;;
78205;SDS011;67480;48.920;12.880;2023-08-24T03:08:59;4.35;;;3.95;;
78205;SDS011;67480;48.920;12.880;2023-08-24T03:11:26;4.18;;;3.78;;
78205;SDS011;67480;48.920;12.880;2023-08-24T03:13:51;4.63;;;4.22;;
78205;SDS011;67480;48.920;12.880;2023-08-24T03:16:17;5.75;;;4.28;;
78205;SDS011;67480;48.920;12.880;2023-08-24T03:18:42;5.75;;;3.90;;
78205;SDS011;67480;48.920;12.880;2023-08-24T03:21:07;4.60;;;4.20;;
78205;SDS011;67480;48.920;12.880;2023-08-24T03:23:33;6.00;;;4.40;;
78205;SDS011;67480;48.920;12.880;2023-08-24T03:25:58;5.45;;;4.43;;
78205;SDS011;67480;48.920;12.880;2023-08-24T03:28:24;4.43;;;3.90;;
78205;SDS011;67480;48.920;12.880;2023-08-24T03:30:52;4.75;;;4.13;;
78205;SDS011;67480;48.920;12.880;2023-08-24T03:33:20;7.97;;;4.38;;
78205;SDS011;67480;48.920;12.880;2023-08-24T03:35:45;6.07;;;4.22;;
78205;SDS011;67480;48.920;12.880;2023-08-24T03:38:11;5.40;;;4.32;;
78205;SDS011;67480;48.920;12.880;2023-08-24T03:40:37;6.28;;;4.30;;
78205;SDS011;67480;48.920;12.880;2023-08-24T03:43:02;4.45;;;4.05;;
78205;SDS011;67480;48.920;12.880;2023-08-24T03:45:28;5.32;;;4.47;;
78205;SDS011;67480;48.920;12.880;2023-08-24T03:47:53;5.65;;;4.70;;
78205;SDS011;67480;48.920;12.880;2023-08-24T03:50:19;5.65;;;4.75;;
78205;SDS011;67480;48.920;12.880;2023-08-24T03:52:46;6.13;;;4.57;;
78205;SDS011;67480;48.920;12.880;2023-08-24T03:55:11;9.90;;;5.03;;
78205;SDS011;67480;48.920;12.880;2023-08-24T03:57:37;5.00;;;4.50;;
78205;SDS011;67480;48.920;12.880;2023-08-24T04:00:03;7.60;;;4.88;;
78205;SDS011;67480;48.920;12.880;2023-08-24T04:02:32;5.28;;;4.78;;
78205;SDS011;67480;48.920;12.880;2023-08-24T04:04:57;5.13;;;4.63;;
78205;SDS011;67480;48.920;12.880;2023-08-24T04:07:23;6.03;;;5.18;;
78205;SDS011;67480;48.920;12.880;2023-08-24T04:09:48;5.85;;;5.03;;
78205;SDS011;67480;48.920;12.880;2023-08-24T04:12:13;5.25;;;4.70;;
78205;SDS011;67480;48.920;12.880;2023-08-24T04:14:39;6.13;;;4.70;;
78205;SDS011;67480;48.920;12.880;2023-08-24T04:17:04;7.45;;;5.35;;
78205;SDS011;67480;48.920;12.880;2023-08-24T04:19:29;7.15;;;5.30;;
78205;SDS011;67480;48.920;12.880;2023-08-24T04:21:55;5.97;;;5.30;;
78205;SDS011;67480;48.920;12.880;2023-08-24T04:24:20;6.63;;;5.18;;
78205;SDS011;67480;48.920;12.880;2023-08-24T04:26:45;6.63;;;5.13;;
78205;SDS011;67480;48.920;12.880;2023-08-24T04:29:11;6.10;;;5.30;;
78205;SDS011;67480;48.920;12.880;2023-08-24T04:31:37;7.65;;;5.07;;
78205;SDS011;67480;48.920;12.880;2023-08-24T04:34:02;5.85;;;5.07;;
78205;SDS011;67480;48.920;12.880;2023-08-24T04:36:29;8.30;;;5.80;;
78205;SDS011;67480;48.920;12.880;2023-08-24T04:38:54;7.97;;;5.45;;
78205;SDS011;67480;48.920;12.880;2023-08-24T04:41:22;7.10;;;5.25;;
78205;SDS011;67480;48.920;12.880;2023-08-24T04:43:48;9.02;;;4.50;;
78205;SDS011;67480;48.920;12.880;2023-08-24T04:46:13;7.28;;;4.40;;
78205;SDS011;67480;48.920;12.880;2023-08-24T04:48:39;4.53;;;4.10;;
78205;SDS011;67480;48.920;12.880;2023-08-24T04:51:04;7.53;;;4.38;;
78205;SDS011;67480;48.920;12.880;2023-08-24T04:53:30;5.35;;;4.60;;
78205;SDS011;67480;48.920;12.880;2023-08-24T04:55:56;5.20;;;4.65;;
78205;SDS011;67480;48.920;12.880;2023-08-24T04:58:21;7.50;;;4.93;;
78205;SDS011;67480;48.920;12.880;2023-08-24T05:00:48;6.68;;;4.93;;
78205;SDS011;67480;48.920;12.880;2023-08-24T05:03:14;8.27;;;5.32;;
78205;SDS011;67480;48.920;12.880;2023-08-24T05:05:39;7.70;;;4.93;;
78205;SDS011;67480;48.920;12.880;2023-08-24T05:08:05;5.70;;;4.65;;
78205;SDS011;67480;48.920;12.880;2023-08-24T05:10:32;6.50;;;4.97;;
78205;SDS011;67480;48.920;12.880;2023-08-24T05:12:58;5.68;;;4.97;;
78205;SDS011;67480;48.920;12.880;2023-08-24T05:15:24;6.07;;;5.38;;
78205;SDS011;67480;48.920;12.880;2023-08-24T05:17:50;6.30;;;5.70;;
78205;SDS011;67480;48.920;12.880;2023-08-24T05:20:19;5.88;;;5.15;;
78205;SDS011;67480;48.920;12.880;2023-08-24T05:22:45;7.70;;;6.07;;
78205;SDS011;67480;48.920;12.880;2023-08-24T05:25:10;7.63;;;5.88;;
78205;SDS011;67480;48.920;12.880;2023-08-24T05:27:36;8.25;;;6.13;;
78205;SDS011;67480;48.920;12.880;2023-08-24T05:30:02;6.90;;;6.30;;
78205;SDS011;67480;48.920;12.880;2023-08-24T05:32:28;7.57;;;6.88;;
78205;SDS011;67480;48.920;12.880;2023-08-24T05:34:53;9.90;;;6.40;;
78205;SDS011;67480;48.920;12.880;2023-08-24T05:37:18;7.68;;;5.75;;
78205;SDS011;67480;48.920;12.880;2023-08-24T05:39:44;6.78;;;6.18;;
78205;SDS011;67480;48.920;12.880;2023-08-24T05:42:09;6.88;;;6.28;;
78205;SDS011;67480;48.920;12.880;2023-08-24T05:44:35;7.07;;;6.38;;
78205;SDS011;67480;48.920;12.880;2023-08-24T05:47:00;8.40;;;6.18;;
78205;SDS011;67480;48.920;12.880;2023-08-24T05:49:26;6.75;;;6.13;;
78205;SDS011;67480;48.920;12.880;2023-08-24T05:51:51;6.90;;;6.10;;
78205;SDS011;67480;48.920;12.880;2023-08-24T05:54:17;7.82;;;5.97;;
78205;SDS011;67480;48.920;12.880;2023-08-24T05:56:46;7.75;;;6.47;;
78205;SDS011;67480;48.920;12.880;2023-08-24T05:59:11;6.60;;;6.00;;
78205;SDS011;67480;48.920;12.880;2023-08-24T06:01:37;11.90;;;10.60;;
78205;SDS011;67480;48.920;12.880;2023-08-24T06:04:06;8.23;;;7.40;;
78205;SDS011;67480;48.920;12.880;2023-08-24T06:06:32;8.02;;;6.57;;
78205;SDS011;67480;48.920;12.880;2023-08-24T06:08:58;8.50;;;6.85;;
78205;SDS011;67480;48.920;12.880;2023-08-24T06:11:23;8.75;;;7.35;;
78205;SDS011;67480;48.920;12.880;2023-08-24T06:13:49;7.53;;;6.75;;
78205;SDS011;67480;48.920;12.880;2023-08-24T06:16:14;7.93;;;7.10;;
78205;SDS011;67480;48.920;12.880;2023-08-24T06:18:40;6.97;;;6.38;;
78205;SDS011;67480;48.920;12.880;2023-08-24T06:21:05;7.13;;;6.43;;
78205;SDS011;67480;48.920;12.880;2023-08-24T06:23:30;8.60;;;7.70;;
78205;SDS011;67480;48.920;12.880;2023-08-24T06:25:56;7.80;;;7.10;;
78205;SDS011;67480;48.920;12.880;2023-08-24T06:28:21;11.30;;;8.50;;
78205;SDS011;67480;48.920;12.880;2023-08-24T06:30:46;8.52;;;7.65;;
78205;SDS011;67480;48.920;12.880;2023-08-24T06:33:12;9.00;;;7.95;;
78205;SDS011;67480;48.920;12.880;2023-08-24T06:35:38;8.95;;;8.10;;
78205;SDS011;67480;48.920;12.880;2023-08-24T06:38:03;8.65;;;7.72;;
78205;SDS011;67480;48.920;12.880;2023-08-24T06:40:29;8.40;;;7.60;;
78205;SDS011;67480;48.920;12.880;2023-08-24T06:42:55;8.30;;;7.40;;
78205;SDS011;67480;48.920;12.880;2023-08-24T06:45:21;8.25;;;7.43;;
78205;SDS011;67480;48.920;12.880;2023-08-24T06:47:46;9.43;;;7.78;;
78205;SDS011;67480;48.920;12.880;2023-08-24T06:50:12;8.50;;;7.80;;
78205;SDS011;67480;48.920;12.880;2023-08-24T06:52:37;8.73;;;7.35;;
78205;SDS011;67480;48.920;12.880;2023-08-24T06:55:03;8.00;;;6.47;;
78205;SDS011;67480;48.920;12.880;2023-08-24T06:57:29;6.72;;;6.13;;
78205;SDS011;67480;48.920;12.880;2023-08-24T06:59:54;6.82;;;6.22;;
78205;SDS011;67480;48.920;12.880;2023-08-24T07:02:20;6.90;;;6.22;;
78205;SDS011;67480;48.920;12.880;2023-08-24T07:04:45;7.20;;;6.50;;
78205;SDS011;67480;48.920;12.880;2023-08-24T07:07:10;6.90;;;6.30;;
78205;SDS011;67480;48.920;12.880;2023-08-24T07:09:36;6.93;;;6.25;;
78205;SDS011;67480;48.920;12.880;2023-08-24T07:12:02;6.93;;;6.22;;
78205;SDS011;67480;48.920;12.880;2023-08-24T07:14:28;6.43;;;5.90;;
78205;SDS011;67480;48.920;12.880;2023-08-24T07:16:54;6.93;;;6.22;;
78205;SDS011;67480;48.920;12.880;2023-08-24T07:19:19;6.10;;;5.47;;
78205;SDS011;67480;48.920;12.880;2023-08-24T07:21:45;10.48;;;5.72;;
78205;SDS011;67480;48.920;12.880;2023-08-24T07:24:11;8.35;;;6.00;;
78205;SDS011;67480;48.920;12.880;2023-08-24T07:26:36;6.53;;;5.57;;
78205;SDS011;67480;48.920;12.880;2023-08-24T07:29:01;6.60;;;4.85;;
78205;SDS011;67480;48.920;12.880;2023-08-24T07:31:27;6.53;;;5.60;;
78205;SDS011;67480;48.920;12.880;2023-08-24T07:33:52;5.82;;;4.70;;
78205;SDS011;67480;48.920;12.880;2023-08-24T07:36:19;5.70;;;5.03;;
78205;SDS011;67480;48.920;12.880;2023-08-24T07:38:44;5.75;;;5.13;;
78205;SDS011;67480;48.920;12.880;2023-08-24T07:41:12;6.85;;;5.15;;
78205;SDS011;67480;48.920;12.880;2023-08-24T07:43:37;6.65;;;5.85;;
78205;SDS011;67480;48.920;12.880;2023-08-24T07:46:03;5.65;;;5.15;;
78205;SDS011;67480;48.920;12.880;2023-08-24T07:48:29;7.63;;;5.28;;
78205;SDS011;67480;48.920;12.880;2023-08-24T07:50:54;5.78;;;4.97;;
78205;SDS011;67480;48.920;12.880;2023-08-24T07:53:20;8.18;;;4.65;;
78205;SDS011;67480;48.920;12.880;2023-08-24T07:55:45;6.82;;;5.20;;
78205;SDS011;67480;48.920;12.880;2023-08-24T07:58:11;7.03;;;5.18;;
78205;SDS011;67480;48.920;12.880;2023-08-24T08:00:37;7.00;;;5.13;;
78205;SDS011;67480;48.920;12.880;2023-08-24T08:03:03;5.75;;;5.03;;
78205;SDS011;67480;48.920;12.880;2023-08-24T08:05:28;4.78;;;4.38;;
78205;SDS011;67480;48.920;12.880;2023-08-24T08:07:54;5.35;;;4.85;;
78205;SDS011;67480;48.920;12.880;2023-08-24T08:10:19;5.20;;;4.70;;
78205;SDS011;67480;48.920;12.880;2023-08-24T08:12:46;7.38;;;4.93;;
78205;SDS011;67480;48.920;12.880;2023-08-24T08:15:11;6.28;;;5.22;;
78205;SDS011;67480;48.920;12.880;2023-08-24T08:17:37;4.95;;;4.28;;
78205;SDS011;67480;48.920;12.880;2023-08-24T08:20:02;5.40;;;4.90;;
78205;SDS011;67480;48.920;12.880;2023-08-24T08:22:28;10.23;;;5.05;;
78205;SDS011;67480;48.920;12.880;2023-08-24T08:24:54;11.93;;;5.07;;
78205;SDS011;67480;48.920;12.880;2023-08-24T08:27:21;7.45;;;4.93;;
78205;SDS011;67480;48.920;12.880;2023-08-24T08:29:49;5.25;;;4.75;;
78205;SDS011;67480;48.920;12.880;2023-08-24T08:32:15;6.45;;;4.72;;
78205;SDS011;67480;48.920;12.880;2023-08-24T08:34:41;5.78;;;5.15;;
78205;SDS011;67480;48.920;12.880;2023-08-24T08:37:06;6.13;;;4.85;;
78205;SDS011;67480;48.920;12.880;2023-08-24T08:39:34;6.13;;;5.10;;
78205;SDS011;67480;48.920;12.880;2023-08-24T08:41:59;6.75;;;5.38;;
78205;SDS011;67480;48.920;12.880;2023-08-24T08:44:26;6.53;;;5.07;;
78205;SDS011;67480;48.920;12.880;2023-08-24T08:46:56;6.03;;;5.22;;
78205;SDS011;67480;48.920;12.880;2023-08-24T08:49:22;8.20;;;5.35;;
78205;SDS011;67480;48.920;12.880;2023-08-24T08:51:48;6.13;;;5.18;;
78205;SDS011;67480;48.920;12.880;2023-08-24T08:54:14;6.80;;;5.53;;
78205;SDS011;67480;48.920;12.880;2023-08-24T08:56:39;8.48;;;5.32;;
78205;SDS011;67480;48.920;12.880;2023-08-24T08:59:07;6.20;;;5.10;;
78205;SDS011;67480;48.920;12.880;2023-08-24T09:01:34;5.88;;;5.15;;
78205;SDS011;67480;48.920;12.880;2023-08-24T09:03:59;6.53;;;5.00;;
78205;SDS011;67480;48.920;12.880;2023-08-24T09:06:26;5.50;;;4.93;;
78205;SDS011;67480;48.920;12.880;2023-08-24T09:08:51;6.72;;;5.78;;
78205;SDS011;67480;48.920;12.880;2023-08-24T09:11:17;5.90;;;5.40;;
78205;SDS011;67480;48.920;12.880;2023-08-24T09:13:43;7.47;;;5.10;;
78205;SDS011;67480;48.920;12.880;2023-08-24T09:16:12;5.53;;;5.03;;
78205;SDS011;67480;48.920;12.880;2023-08-24T09:18:45;8.35;;;5.57;;
78205;SDS011;67480;48.920;12.880;2023-08-24T09:21:12;6.15;;;5.57;;
78205;SDS011;67480;48.920;12.880;2023-08-24T09:23:44;6.85;;;5.85;;
78205;SDS011;67480;48.920;12.880;2023-08-24T09:26:13;6.75;;;5.75;;
78205;SDS011;67480;48.920;12.880;2023-08-24T09:28:41;7.00;;;5.72;;
78205;SDS011;67480;48.920;12.880;2023-08-24T09:31:07;6.97;;;6.00;;
78205;SDS011;67480;48.920;12.880;2023-08-24T09:33:33;6.78;;;6.10;;
78205;SDS011;67480;48.920;12.880;2023-08-24T09:36:00;6.75;;;6.03;;
78205;SDS011;67480;48.920;12.880;2023-08-24T09:38:26;6.55;;;5.97;;
78205;SDS011;67480;48.920;12.880;2023-08-24T09:40:53;7.60;;;6.35;;
78205;SDS011;67480;48.920;12.880;2023-08-24T09:43:20;7.45;;;6.35;;
78205;SDS011;67480;48.920;12.880;2023-08-24T09:48:17;7.63;;;6.28;;
78205;SDS011;67480;48.920;12.880;2023-08-24T09:50:46;6.78;;;6.13;;
78205;SDS011;67480;48.920;12.880;2023-08-24T09:53:15;7.40;;;6.60;;
78205;SDS011;67480;48.920;12.880;2023-08-24T09:55:55;7.00;;;5.90;;
78205;SDS011;67480;48.920;12.880;2023-08-24T09:58:23;8.30;;;6.55;;
78205;SDS011;67480;48.920;12.880;2023-08-24T10:00:49;7.40;;;6.70;;
78205;SDS011;67480;48.920;12.880;2023-08-24T10:03:15;6.85;;;6.20;;
78205;SDS011;67480;48.920;12.880;2023-08-24T10:05:45;8.35;;;6.60;;
78205;SDS011;67480;48.920;12.880;2023-08-24T10:08:24;6.55;;;5.95;;
78205;SDS011;67480;48.920;12.880;2023-08-24T10:10:55;6.97;;;6.37;;
78205;SDS011;67480;48.920;12.880;2023-08-24T10:13:30;7.03;;;6.43;;
78205;SDS011;67480;48.920;12.880;2023-08-24T10:16:02;6.95;;;6.30;;
78205;SDS011;67480;48.920;12.880;2023-08-24T10:18:30;7.82;;;6.25;;
78205;SDS011;67480;48.920;12.880;2023-08-24T10:20:55;7.13;;;5.88;;
78205;SDS011;67480;48.920;12.880;2023-08-24T10:23:21;6.85;;;6.20;;
78205;SDS011;67480;48.920;12.880;2023-08-24T10:25:47;6.65;;;5.70;;
78205;SDS011;67480;48.920;12.880;2023-08-24T10:28:16;7.60;;;6.28;;
78205;SDS011;67480;48.920;12.880;2023-08-24T10:30:43;6.47;;;5.85;;
78205;SDS011;67480;48.920;12.880;2023-08-24T10:33:11;7.22;;;6.50;;
78205;SDS011;67480;48.920;12.880;2023-08-24T10:35:39;6.80;;;6.25;;
78205;SDS011;67480;48.920;12.880;2023-08-24T10:38:06;6.82;;;5.95;;
78205;SDS011;67480;48.920;12.880;2023-08-24T10:43:03;9.00;;;6.15;;
78205;SDS011;67480;48.920;12.880;2023-08-24T10:48:21;9.38;;;6.30;;
78205;SDS011;67480;48.920;12.880;2023-08-24T10:53:43;7.00;;;6.30;;
78205;SDS011;67480;48.920;12.880;2023-08-24T10:56:10;7.55;;;6.18;;
78205;SDS011;67480;48.920;12.880;2023-08-24T10:58:39;6.70;;;6.10;;
78205;SDS011;67480;48.920;12.880;2023-08-24T11:01:05;8.63;;;5.47;;
78205;SDS011;67480;48.920;12.880;2023-08-24T11:03:31;9.10;;;5.70;;
78205;SDS011;67480;48.920;12.880;2023-08-24T11:05:57;5.47;;;4.95;;
78205;SDS011;67480;48.920;12.880;2023-08-24T11:08:43;6.68;;;5.35;;
78205;SDS011;67480;48.920;12.880;2023-08-24T11:11:22;6.10;;;5.50;;
78205;SDS011;67480;48.920;12.880;2023-08-24T11:16:44;5.88;;;5.38;;
78205;SDS011;67480;48.920;12.880;2023-08-24T11:19:11;6.53;;;5.90;;
78205;SDS011;67480;48.920;12.880;2023-08-24T11:21:40;7.35;;;5.70;;
78205;SDS011;67480;48.920;12.880;2023-08-24T11:24:10;6.57;;;5.50;;
78205;SDS011;67480;48.920;12.880;2023-08-24T11:26:47;6.15;;;5.60;;
78205;SDS011;67480;48.920;12.880;2023-08-24T11:29:14;5.55;;;4.93;;
78205;SDS011;67480;48.920;12.880;2023-08-24T11:31:43;5.25;;;4.78;;
78205;SDS011;67480;48.920;12.880;2023-08-24T11:34:09;5.20;;;4.80;;
78205;SDS011;67480;48.920;12.880;2023-08-24T11:36:48;6.18;;;4.93;;
78205;SDS011;67480;48.920;12.880;2023-08-24T11:39:18;4.82;;;4.43;;
78205;SDS011;67480;48.920;12.880;2023-08-24T11:42:05;6.53;;;4.90;;
78205;SDS011;67480;48.920;12.880;2023-08-24T11:44:46;5.55;;;4.60;;
78205;SDS011;67480;48.920;12.880;2023-08-24T11:47:13;4.90;;;4.50;;
78205;SDS011;67480;48.920;12.880;2023-08-24T11:49:38;6.95;;;4.82;;
78205;SDS011;67480;48.920;12.880;2023-08-24T11:52:04;7.95;;;4.78;;
78205;SDS011;67480;48.920;12.880;2023-08-24T11:54:32;8.13;;;4.63;;
78205;SDS011;67480;48.920;12.880;2023-08-24T11:56:57;5.68;;;4.10;;
78205;SDS011;67480;48.920;12.880;2023-08-24T11:59:23;5.35;;;4.28;;
78205;SDS011;67480;48.920;12.880;2023-08-24T12:01:49;5.28;;;4.47;;
78205;SDS011;67480;48.920;12.880;2023-08-24T12:04:16;6.45;;;3.97;;
78205;SDS011;67480;48.920;12.880;2023-08-24T12:06:41;5.03;;;4.18;;
78205;SDS011;67480;48.920;12.880;2023-08-24T12:09:06;4.25;;;3.85;;
78205;SDS011;67480;48.920;12.880;2023-08-24T12:11:38;4.38;;;3.97;;
78205;SDS011;67480;48.920;12.880;2023-08-24T12:14:04;6.28;;;4.20;;
78205;SDS011;67480;48.920;12.880;2023-08-24T12:16:32;7.03;;;3.88;;
78205;SDS011;67480;48.920;12.880;2023-08-24T12:18:59;4.20;;;3.80;;
78205;SDS011;67480;48.920;12.880;2023-08-24T12:21:27;5.85;;;3.72;;
78205;SDS011;67480;48.920;12.880;2023-08-24T12:24:06;6.75;;;4.38;;
78205;SDS011;67480;48.920;12.880;2023-08-24T12:26:33;6.55;;;4.53;;
78205;SDS011;67480;48.920;12.880;2023-08-24T12:29:05;5.40;;;4.30;;
78205;SDS011;67480;48.920;12.880;2023-08-24T12:31:33;6.13;;;5.13;;
78205;SDS011;67480;48.920;12.880;2023-08-24T12:34:02;5.20;;;4.72;;
78205;SDS011;67480;48.920;12.880;2023-08-24T12:36:35;6.40;;;5.18;;
78205;SDS011;67480;48.920;12.880;2023-08-24T12:39:01;5.88;;;4.75;;
78205;SDS011;67480;48.920;12.880;2023-08-24T12:41:29;6.30;;;5.22;;
78205;SDS011;67480;48.920;12.880;2023-08-24T12:43:55;6.22;;;5.43;;
78205;SDS011;67480;48.920;12.880;2023-08-24T12:46:20;5.55;;;5.05;;
78205;SDS011;67480;48.920;12.880;2023-08-24T12:48:45;7.35;;;5.85;;
78205;SDS011;67480;48.920;12.880;2023-08-24T12:51:11;5.40;;;4.93;;
78205;SDS011;67480;48.920;12.880;2023-08-24T12:53:36;6.60;;;5.22;;
78205;SDS011;67480;48.920;12.880;2023-08-24T12:56:02;6.72;;;5.95;;
78205;SDS011;67480;48.920;12.880;2023-08-24T12:58:27;7.07;;;5.20;;
78205;SDS011;67480;48.920;12.880;2023-08-24T13:00:53;7.47;;;5.70;;
78205;SDS011;67480;48.920;12.880;2023-08-24T13:03:18;5.82;;;5.32;;
78205;SDS011;67480;48.920;12.880;2023-08-24T13:05:43;6.65;;;5.30;;
78205;SDS011;67480;48.920;12.880;2023-08-24T13:08:09;6.50;;;5.78;;
78205;SDS011;67480;48.920;12.880;2023-08-24T13:10:34;6.57;;;5.57;;
78205;SDS011;67480;48.920;12.880;2023-08-24T13:13:01;6.65;;;5.28;;
78205;SDS011;67480;48.920;12.880;2023-08-24T13:15:28;6.05;;;5.47;;
78205;SDS011;67480;48.920;12.880;2023-08-24T13:17:54;6.47;;;5.80;;
78205;SDS011;67480;48.920;12.880;2023-08-24T13:20:19;7.22;;;5.50;;
78205;SDS011;67480;48.920;12.880;2023-08-24T13:22:45;7.90;;;5.97;;
78205;SDS011;67480;48.920;12.880;2023-08-24T13:25:10;6.43;;;5.85;;
78205;SDS011;67480;48.920;12.880;2023-08-24T13:27:35;7.80;;;6.20;;
78205;SDS011;67480;48.920;12.880;2023-08-24T13:30:01;6.97;;;5.10;;
78205;SDS011;67480;48.920;12.880;2023-08-24T13:32:28;6.20;;;5.60;;
78205;SDS011;67480;48.920;12.880;2023-08-24T13:34:53;5.75;;;5.25;;
78205;SDS011;67480;48.920;12.880;2023-08-24T13:37:18;8.57;;;5.72;;
78205;SDS011;67480;48.920;12.880;2023-08-24T13:39:44;6.15;;;5.45;;
78205;SDS011;67480;48.920;12.880;2023-08-24T13:42:09;5.82;;;5.32;;
78205;SDS011;67480;48.920;12.880;2023-08-24T13:44:35;5.97;;;5.47;;
78205;SDS011;67480;48.920;12.880;2023-08-24T13:47:00;6.50;;;5.18;;
78205;SDS011;67480;48.920;12.880;2023-08-24T13:49:25;7.05;;;5.82;;
78205;SDS011;67480;48.920;12.880;2023-08-24T13:51:51;6.18;;;5.43;;
78205;SDS011;67480;48.920;12.880;2023-08-24T13:54:16;6.38;;;4.93;;
78205;SDS011;67480;48.920;12.880;2023-08-24T13:56:43;5.70;;;5.15;;
78205;SDS011;67480;48.920;12.880;2023-08-24T13:59:12;6.50;;;5.40;;
78205;SDS011;67480;48.920;12.880;2023-08-24T14:01:39;6.93;;;5.20;;
78205;SDS011;67480;48.920;12.880;2023-08-24T14:04:04;6.45;;;4.80;;
78205;SDS011;67480;48.920;12.880;2023-08-24T14:06:30;6.28;;;4.90;;
78205;SDS011;67480;48.920;12.880;2023-08-24T14:08:57;5.35;;;4.80;;
78205;SDS011;67480;48.920;12.880;2023-08-24T14:11:23;4.50;;;3.85;;
78205;SDS011;67480;48.920;12.880;2023-08-24T14:13:48;6.10;;;4.38;;
78205;SDS011;67480;48.920;12.880;2023-08-24T14:16:14;5.35;;;4.28;;
78205;SDS011;67480;48.920;12.880;2023-08-24T14:18:39;5.75;;;4.88;;
78205;SDS011;67480;48.920;12.880;2023-08-24T14:21:05;5.78;;;4.45;;
78205;SDS011;67480;48.920;12.880;2023-08-24T14:23:30;6.20;;;4.43;;
78205;SDS011;67480;48.920;12.880;2023-08-24T14:25:56;5.03;;;4.60;;
78205;SDS011;67480;48.920;12.880;2023-08-24T14:28:21;6.68;;;4.72;;
78205;SDS011;67480;48.920;12.880;2023-08-24T14:30:50;7.07;;;5.20;;
78205;SDS011;67480;48.920;12.880;2023-08-24T14:33:16;7.85;;;4.82;;
78205;SDS011;67480;48.920;12.880;2023-08-24T14:35:49;5.97;;;4.95;;
78205;SDS011;67480;48.920;12.880;2023-08-24T14:38:18;6.88;;;4.80;;
78205;SDS011;67480;48.920;12.880;2023-08-24T14:40:44;6.72;;;5.15;;
78205;SDS011;67480;48.920;12.880;2023-08-24T14:43:10;5.38;;;4.78;;
78205;SDS011;67480;48.920;12.880;2023-08-24T14:45:35;5.03;;;4.63;;
78205;SDS011;67480;48.920;12.880;2023-08-24T14:48:00;6.88;;;4.53;;
78205;SDS011;67480;48.920;12.880;2023-08-24T14:50:26;8.82;;;4.40;;
78205;SDS011;67480;48.920;12.880;2023-08-24T14:52:51;10.95;;;4.15;;
78205;SDS011;67480;48.920;12.880;2023-08-24T14:55:16;9.15;;;3.97;;